Time;durP1;ratioP1;P1;durP2;ratioP2;P2;SDS_P1;SDS_P2;PMS_P1;PMS_P2;Temp;Humidity;BMP_temperature;BMP_pressure;BME280_temperature;BME280_humidity;BME280_pressure;Samples;Min_cycle;Max_cycle;Signal;HPM_P1;HPM_P2
2022/10/29 00:06:09;;;;;;;11.40;5.00;;;20.50;99.90;;;;;;7731856;76;26328;-60
2022/10/29 00:16:14;;;;;;;13.00;5.60;;;20.50;99.90;;;;;;7735946;76;26369;-62
2022/10/29 00:26:19;;;;;;;13.70;4.97;;;20.50;99.90;;;;;;7713301;76;26291;-61
2022/10/29 00:36:27;;;;;;;14.50;5.80;;;20.50;99.90;;;;;;7743324;76;26325;-61
2022/10/29 00:46:33;;;;;;;9.60;5.10;;;20.50;99.90;;;;;;7746887;76;26314;-60
2022/10/29 00:56:47;;;;;;;12.20;4.90;;;20.50;99.90;;;;;;7745131;76;26315;-58
2022/10/29 01:06:49;;;;;;;10.63;5.17;;;20.50;99.90;;;;;;7757457;76;26394;-64
2022/10/29 01:17:16;;;;;;;11.63;6.00;;;20.30;99.90;;;;;;7740302;76;26264;-60
2022/10/29 01:27:30;;;;;;;12.47;4.83;;;20.30;99.90;;;;;;7729799;76;26252;-59
2022/10/29 01:37:51;;;;;;;13.90;5.87;;;20.30;99.90;;;;;;7733272;76;26240;-62
2022/10/29 01:48:02;;;;;;;11.33;4.17;;;20.20;99.90;;;;;;7750965;76;26227;-62
2022/10/29 01:58:07;;;;;;;12.27;5.17;;;20.20;99.90;;;;;;7755029;76;26240;-59
2022/10/29 02:08:22;;;;;;;13.10;4.60;;;20.10;99.90;;;;;;7754713;76;26801;-60
2022/10/29 02:18:25;;;;;;;9.37;4.00;;;20.20;99.90;;;;;;7765655;76;26851;-61
2022/10/29 02:28:27;;;;;;;10.87;5.13;;;20.10;99.90;;;;;;7723817;76;27061;-59
2022/10/29 02:38:30;;;;;;;8.90;4.20;;;20.10;99.90;;;;;;7702886;76;26313;-58
2022/10/29 02:48:32;;;;;;;7.00;5.17;;;20.10;99.90;;;;;;7746318;76;26221;-59
2022/10/29 02:58:35;;;;;;;13.73;5.40;;;20.10;99.90;;;;;;7744365;75;26730;-59
2022/10/29 03:08:38;;;;;;;18.03;4.43;;;20.10;99.90;;;;;;7768359;75;26735;-60
2022/10/29 03:18:41;;;;;;;10.63;4.47;;;20.10;99.90;;;;;;7772182;76;26698;-58
2022/10/29 03:28:43;;;;;;;14.03;5.10;;;20.00;99.90;;;;;;7747102;76;26249;-59
2022/10/29 03:38:46;;;;;;;10.70;4.80;;;20.00;99.90;;;;;;7733308;76;26276;-59
2022/10/29 03:48:51;;;;;;;10.50;3.90;;;19.90;99.90;;;;;;7706037;76;26345;-59
2022/10/29 03:58:54;;;;;;;13.30;4.43;;;19.90;99.90;;;;;;7718228;76;26236;-59
2022/10/29 04:08:56;;;;;;;11.50;5.10;;;19.90;99.90;;;;;;7720764;76;26350;-59
2022/10/29 04:18:59;;;;;;;9.40;4.43;;;19.90;99.90;;;;;;7736284;76;26833;-59
2022/10/29 04:29:01;;;;;;;9.73;4.27;;;19.90;99.90;;;;;;7707176;76;26314;-60
2022/10/29 04:39:04;;;;;;;10.67;4.30;;;19.80;99.90;;;;;;7740049;76;26350;-59
2022/10/29 04:49:06;;;;;;;12.17;4.23;;;19.80;99.90;;;;;;7727123;76;26396;-60
2022/10/29 04:59:09;;;;;;;14.73;4.10;;;19.80;99.90;;;;;;7744606;76;26269;-58
2022/10/29 05:09:11;;;;;;;9.87;4.70;;;19.80;99.90;;;;;;7715409;76;26291;-57
2022/10/29 05:19:14;;;;;;;7.23;4.10;;;19.70;99.90;;;;;;7730019;76;26362;-58
2022/10/29 05:29:16;;;;;;;14.10;4.53;;;19.80;99.90;;;;;;7648690;75;26325;-58
2022/10/29 05:39:19;;;;;;;12.53;4.47;;;19.70;99.90;;;;;;7571903;77;27128;-57
2022/10/29 05:49:21;;;;;;;12.97;4.43;;;19.70;99.90;;;;;;7617458;77;26375;-57
2022/10/29 05:59:24;;;;;;;14.87;3.87;;;19.70;99.90;;;;;;7572926;77;26317;-60
2022/10/29 06:09:26;;;;;;;16.57;4.00;;;19.70;99.90;;;;;;7596914;77;27370;-60
2022/10/29 06:19:29;;;;;;;9.10;4.20;;;19.70;99.90;;;;;;7588440;77;26589;-59
2022/10/29 06:29:31;;;;;;;10.27;4.60;;;19.70;99.90;;;;;;7659971;76;26391;-60
2022/10/29 06:39:34;;;;;;;16.30;4.07;;;19.70;99.90;;;;;;7698542;76;26859;-57
2022/10/29 06:49:36;;;;;;;12.63;3.83;;;19.70;99.90;;;;;;7760678;76;26295;-59
2022/10/29 06:59:39;;;;;;;11.27;4.10;;;19.70;99.90;;;;;;7732400;76;26303;-58
2022/10/29 07:09:44;;;;;;;13.23;4.70;;;19.60;99.90;;;;;;7735123;76;26632;-60
2022/10/29 07:19:48;;;;;;;7.43;3.60;;;19.60;99.90;;;;;;7736020;76;26257;-61
2022/10/29 07:29:51;;;;;;;10.50;4.00;;;19.70;99.90;;;;;;7797451;75;26252;-61
2022/10/29 07:39:53;;;;;;;10.43;4.10;;;19.70;99.90;;;;;;7784781;75;26240;-60
2022/10/29 07:49:56;;;;;;;11.67;4.00;;;19.70;99.90;;;;;;7800515;75;26726;-60
2022/10/29 07:59:58;;;;;;;19.50;5.23;;;19.70;99.90;;;;;;7786892;75;26270;-61
2022/10/29 08:10:01;;;;;;;11.90;4.93;;;19.70;99.90;;;;;;7795450;75;26224;-60
2022/10/29 08:20:03;;;;;;;21.27;5.03;;;19.70;99.90;;;;;;7811815;75;26375;-62
2022/10/29 08:30:07;;;;;;;13.60;4.87;;;19.70;99.90;;;;;;7697085;75;26719;-60
2022/10/29 08:40:16;;;;;;;19.33;5.10;;;19.70;99.90;;;;;;7611135;77;26725;-59
2022/10/29 08:50:39;;;;;;;14.37;4.13;;;19.70;99.90;;;;;;7618453;77;26860;-59
2022/10/29 09:00:42;;;;;;;20.07;6.20;;;19.80;99.90;;;;;;7579361;77;26358;-60
2022/10/29 09:10:48;;;;;;;13.23;5.03;;;19.80;99.90;;;;;;7607517;77;26379;-59
2022/10/29 09:20:56;;;;;;;12.20;4.47;;;19.90;99.90;;;;;;7604720;77;26795;-61
2022/10/29 09:31:08;;;;;;;17.20;4.40;;;19.90;99.90;;;;;;7595280;77;26744;-62
2022/10/29 09:41:11;;;;;;;13.53;4.73;;;19.90;99.90;;;;;;7651122;77;26787;-59
2022/10/29 09:51:39;;;;;;;17.30;5.87;;;19.90;99.90;;;;;;7630552;77;26659;-58
2022/10/29 10:01:42;;;;;;;13.30;5.03;;;19.80;99.90;;;;;;7646067;77;26751;-60
2022/10/29 10:11:47;;;;;;;11.77;4.93;;;19.90;99.90;;;;;;7622209;77;26258;-61
2022/10/29 10:22:02;;;;;;;13.83;4.50;;;20.00;99.90;;;;;;7636215;77;26310;-59
2022/10/29 10:32:07;;;;;;;12.40;4.77;;;19.90;99.90;;;;;;7705050;75;27157;-59
2022/10/29 10:42:33;;;;;;;14.30;5.70;;;19.90;99.90;;;;;;7749338;75;26315;-56
2022/10/29 10:52:35;;;;;;;13.03;5.20;;;20.00;99.90;;;;;;7763489;75;26385;-61
2022/10/29 11:13:24;;;;;;;22.37;7.67;;;20.00;99.90;;;;;;7377417;78;26322;-59
2022/10/29 11:23:44;;;;;;;20.27;7.23;;;20.00;99.90;;;;;;7442915;78;26358;-57
2022/10/29 11:34:05;;;;;;;34.23;7.73;;;20.10;99.90;;;;;;7444187;78;26366;-60
2022/10/29 11:44:12;;;;;;;36.53;9.50;;;20.10;99.90;;;;;;7418852;78;26817;-59
2022/10/29 11:54:30;;;;;;;21.07;7.17;;;20.10;99.90;;;;;;7424489;79;26768;-60
2022/10/29 12:04:40;;;;;;;34.27;12.20;;;20.10;99.90;;;;;;7414466;78;26273;-61
2022/10/29 12:14:52;;;;;;;44.40;13.03;;;20.00;99.90;;;;;;7433014;79;26272;-61
2022/10/29 12:25:03;;;;;;;58.20;23.97;;;20.10;99.90;;;;;;7429159;78;26263;-60
2022/10/29 12:35:27;;;;;;;50.47;18.27;;;20.20;99.90;;;;;;7422245;78;26277;-61
2022/10/29 12:45:35;;;;;;;55.07;19.37;;;20.20;99.90;;;;;;7412850;78;26316;-59
2022/10/29 12:55:37;;;;;;;60.67;20.83;;;20.20;99.90;;;;;;7409180;78;26378;-61
2022/10/29 13:05:44;;;;;;;34.77;12.70;;;20.30;99.90;;;;;;7407701;78;26968;-62
2022/10/29 13:16:01;;;;;;;33.47;10.53;;;20.20;99.90;;;;;;7409913;78;26334;-61
2022/10/29 13:26:06;;;;;;;25.43;8.87;;;20.20;99.90;;;;;;7412011;78;26418;-59
2022/10/29 13:36:21;;;;;;;27.63;8.67;;;20.20;99.90;;;;;;7418085;78;26323;-59
2022/10/29 13:46:44;;;;;;;17.07;7.67;;;20.20;99.90;;;;;;7447539;79;26288;-59
2022/10/29 13:56:50;;;;;;;14.40;6.00;;;20.30;99.90;;;;;;7413296;79;26335;-61
2022/10/29 14:06:55;;;;;;;18.17;7.13;;;20.30;99.90;;;;;;7436109;78;26957;-60
2022/10/29 14:17:13;;;;;;;21.17;6.43;;;20.30;99.90;;;;;;7435387;79;27191;-58
2022/10/29 14:27:15;;;;;;;18.57;8.27;;;20.30;99.90;;;;;;7441059;78;26291;-59
2022/10/29 14:37:21;;;;;;;26.30;9.40;;;20.30;99.90;;;;;;7449831;78;26825;-59
2022/10/29 14:47:27;;;;;;;17.97;7.57;;;20.30;99.90;;;;;;7444954;78;26287;-61
2022/10/29 14:57:33;;;;;;;19.67;7.40;;;20.30;99.90;;;;;;7407385;78;26337;-59
2022/10/29 15:07:36;;;;;;;12.67;6.43;;;20.30;99.90;;;;;;7433514;79;26410;-57
2022/10/29 15:17:59;;;;;;;13.87;6.53;;;20.30;99.90;;;;;;7433165;78;26661;-60
2022/10/29 15:28:02;;;;;;;15.57;5.77;;;20.20;99.90;;;;;;7403716;78;26280;-58
2022/10/29 15:38:04;;;;;;;13.70;5.23;;;20.30;99.90;;;;;;7432052;79;26339;-57
2022/10/29 15:48:11;;;;;;;12.33;5.53;;;20.20;99.90;;;;;;7427154;78;26993;-58
2022/10/29 15:58:16;;;;;;;25.60;7.23;;;20.20;99.90;;;;;;7430224;78;26337;-57
2022/10/29 16:08:28;;;;;;;20.33;6.80;;;20.20;99.90;;;;;;7420735;78;26339;-60
2022/10/29 16:18:30;;;;;;;21.33;7.90;;;20.10;99.90;;;;;;7405565;78;26331;-59
2022/10/29 16:28:33;;;;;;;32.87;7.63;;;20.10;99.90;;;;;;7422406;78;26383;-59
2022/10/29 16:38:35;;;;;;;28.43;7.93;;;20.10;99.90;;;;;;7429852;78;26852;-61
2022/10/29 16:48:38;;;;;;;20.10;8.27;;;20.00;99.90;;;;;;7424271;78;26350;-57
2022/10/29 16:58:41;;;;;;;20.23;7.50;;;20.00;99.90;;;;;;7425720;78;26814;-58
2022/10/29 17:08:43;;;;;;;19.13;6.77;;;20.00;99.90;;;;;;7437690;78;26422;-58
2022/10/29 17:18:49;;;;;;;18.40;6.77;;;20.00;99.90;;;;;;7444250;78;26367;-60
2022/10/29 17:28:50;;;;;;;19.10;8.33;;;20.00;99.90;;;;;;7415236;79;26304;-62
2022/10/29 17:38:52;;;;;;;19.77;9.17;;;20.00;99.90;;;;;;7430467;78;26370;-60
2022/10/29 17:48:56;;;;;;;18.27;9.10;;;20.00;99.90;;;;;;7417155;78;26826;-62
2022/10/29 17:58:58;;;;;;;23.73;9.83;;;19.90;99.90;;;;;;7418344;78;26304;-62
2022/10/29 18:09:01;;;;;;;39.83;9.90;;;20.00;99.90;;;;;;7437472;78;26296;-61
2022/10/29 18:19:03;;;;;;;45.63;11.33;;;19.90;99.90;;;;;;7423711;78;26901;-62
2022/10/29 18:29:08;;;;;;;38.37;10.80;;;19.90;99.90;;;;;;7438209;78;26311;-62
2022/10/29 18:39:11;;;;;;;31.67;10.90;;;19.90;99.90;;;;;;7442266;79;26323;-62
2022/10/29 18:49:14;;;;;;;27.67;9.47;;;19.90;99.90;;;;;;7438316;78;26849;-61
2022/10/29 18:59:16;;;;;;;22.27;9.07;;;19.80;99.90;;;;;;7428894;78;26915;-61
2022/10/29 19:09:19;;;;;;;30.93;10.03;;;19.70;99.90;;;;;;7429515;78;26327;-60
2022/10/29 19:19:21;;;;;;;23.33;7.40;;;19.60;99.90;;;;;;7424468;78;26295;-59
2022/10/29 19:29:24;;;;;;;28.93;9.67;;;19.50;99.90;;;;;;7412337;78;26289;-60
2022/10/29 19:39:27;;;;;;;25.27;10.20;;;19.70;99.90;;;;;;7445181;78;26374;-60
2022/10/29 19:49:29;;;;;;;26.43;9.93;;;19.70;99.90;;;;;;7437149;78;26868;-58
2022/10/29 19:59:32;;;;;;;21.27;8.23;;;19.70;99.90;;;;;;7432974;78;26302;-61
2022/10/29 20:09:34;;;;;;;24.00;8.50;;;19.70;99.90;;;;;;7423466;78;26437;-61
2022/10/29 20:19:37;;;;;;;22.87;8.63;;;19.60;99.90;;;;;;7434117;78;26735;-62
2022/10/29 20:29:39;;;;;;;20.07;9.17;;;19.60;99.90;;;;;;7424116;78;26390;-62
2022/10/29 20:39:42;;;;;;;19.83;8.53;;;19.60;99.90;;;;;;7432968;78;26300;-61
2022/10/29 20:49:44;;;;;;;16.57;8.03;;;19.60;99.90;;;;;;7433699;78;26314;-59
2022/10/29 20:59:47;;;;;;;18.53;8.70;;;19.50;99.90;;;;;;7424552;78;26300;-59
2022/10/29 21:09:50;;;;;;;17.03;8.00;;;19.60;99.90;;;;;;7423779;78;26316;-63
2022/10/29 21:19:53;;;;;;;15.80;7.43;;;19.50;99.90;;;;;;7405769;79;26327;-58
2022/10/29 21:29:55;;;;;;;12.40;6.77;;;19.50;99.90;;;;;;7407355;78;26303;-59
2022/10/29 21:39:58;;;;;;;18.07;7.17;;;19.60;99.90;;;;;;7416270;78;26876;-59
2022/10/29 21:50:00;;;;;;;14.40;6.97;;;19.60;99.90;;;;;;7406094;78;26295;-59
2022/10/29 22:00:04;;;;;;;16.10;6.80;;;19.50;99.90;;;;;;7427850;78;26333;-60
2022/10/29 22:10:07;;;;;;;17.20;7.00;;;19.60;99.90;;;;;;7413289;78;26355;-59
2022/10/29 22:20:10;;;;;;;15.63;7.17;;;19.40;99.90;;;;;;7413058;78;26307;-59
2022/10/29 22:30:13;;;;;;;14.10;6.37;;;19.40;99.90;;;;;;7406540;78;26326;-59
2022/10/29 22:40:15;;;;;;;15.23;6.00;;;19.50;99.90;;;;;;7414033;78;26416;-62
2022/10/29 22:50:18;;;;;;;17.40;6.97;;;19.50;99.90;;;;;;7450392;78;26284;-59
2022/10/29 23:00:20;;;;;;;15.20;6.30;;;19.40;99.90;;;;;;7447174;78;26311;-61
2022/10/29 23:10:23;;;;;;;13.37;6.23;;;19.40;99.90;;;;;;7424680;78;26861;-59
2022/10/29 23:20:25;;;;;;;15.53;6.03;;;19.40;99.90;;;;;;7382833;79;26343;-60
2022/10/29 23:30:28;;;;;;;15.87;5.03;;;19.40;99.90;;;;;;7405412;79;26323;-62
2022/10/29 23:40:30;;;;;;;18.47;5.50;;;19.40;99.90;;;;;;7403316;79;26363;-61
2022/10/29 23:50:33;;;;;;;11.07;6.17;;;19.30;99.90;;;;;;7408246;79;27316;-61
